Time;durP1;ratioP1;P1;durP2;ratioP2;P2;SDS_P1;SDS_P2;PMS_P1;PMS_P2;Temp;Humidity;BMP_temperature;BMP_pressure;BME280_temperature;BME280_humidity;BME280_pressure;Samples;Min_cycle;Max_cycle;Signal;HPM_P1;HPM_P2
2022/11/18 00:03:34;;;;;;;18.38;12.15;;;6.60;57.90;;;5.23;61.31;100011.34;12205463;19;20393;-85
2022/11/18 00:07:36;;;;;;;18.45;12.73;;;6.60;57.90;;;5.24;61.12;100017.38;12202932;19;20902;-86
2022/11/18 00:16:08;;;;;;;20.48;13.77;;;6.80;58.10;;;4.87;61.18;99946.56;12199328;19;20034;-86
2022/11/18 00:20:11;;;;;;;18.95;12.77;;;6.80;58.20;;;5.12;61.22;99987.69;12209737;19;21041;-85
2022/11/18 00:24:13;;;;;;;24.50;16.10;;;6.70;58.20;;;5.04;61.39;99985.44;12203920;19;20563;-85
2022/11/18 00:28:15;;;;;;;21.42;14.88;;;6.70;58.20;;;5.12;61.23;99994.63;12202626;19;20018;-85
2022/11/18 00:32:17;;;;;;;23.02;14.82;;;6.40;58.10;;;4.64;61.33;99927.72;12205689;19;21313;-86
2022/11/18 00:36:18;;;;;;;19.55;14.13;;;6.40;58.10;;;5.05;61.29;99997.50;12202739;19;20022;-86
2022/11/18 00:40:20;;;;;;;18.80;12.57;;;6.40;58.10;;;4.71;61.38;99940.38;12207327;19;20383;-85
2022/11/18 00:44:22;;;;;;;25.25;16.85;;;6.40;58.10;;;5.02;61.31;100000.22;12197000;19;20059;-85
2022/11/18 00:48:24;;;;;;;21.33;15.43;;;6.30;58.20;;;4.98;61.22;100000.41;12199787;19;20483;-86
2022/11/18 00:52:26;;;;;;;22.23;15.07;;;6.30;58.10;;;4.93;61.41;99998.00;12194806;19;20610;-85
2022/11/18 00:56:27;;;;;;;19.17;13.40;;;6.30;58.00;;;4.79;61.43;99985.69;12193936;19;20078;-85
2022/11/18 01:00:29;;;;;;;20.63;14.05;;;6.60;58.10;;;4.92;61.48;100017.03;12200917;19;20034;-85
2022/11/18 01:04:31;;;;;;;26.10;16.52;;;6.20;57.90;;;4.86;61.22;100000.03;12198505;19;20010;-86
2022/11/18 01:08:32;;;;;;;25.52;18.13;;;6.20;57.90;;;4.83;61.31;99997.59;12200105;19;20025;-86
2022/11/18 01:16:56;;;;;;;16.90;12.90;;;6.10;57.70;;;4.71;61.36;99992.94;12198997;19;20034;-86
2022/11/18 01:21:03;;;;;;;18.17;12.95;;;6.10;57.70;;;4.73;61.27;100004.06;12203054;19;20371;-86
2022/11/18 01:25:04;;;;;;;17.77;12.90;;;6.10;57.70;;;4.66;61.62;99984.53;12200608;19;20015;-86
2022/11/18 01:29:06;;;;;;;22.85;17.20;;;6.10;57.70;;;4.54;61.30;99969.56;12198232;19;20369;-86
2022/11/18 01:33:08;;;;;;;20.67;13.70;;;6.30;57.60;;;4.66;61.33;99989.69;12194533;19;20018;-85
2022/11/18 01:37:11;;;;;;;18.40;14.05;;;6.40;57.70;;;4.64;61.50;99997.53;12197097;19;20545;-86
2022/11/18 01:41:13;;;;;;;17.48;14.10;;;6.10;57.50;;;4.64;61.37;100004.44;12201277;19;20042;-86
2022/11/18 01:45:37;;;;;;;20.23;14.73;;;6.00;57.50;;;4.66;61.24;100016.38;12194723;19;20022;-86
2022/11/18 01:49:40;;;;;;;19.40;13.73;;;6.00;57.30;;;4.57;61.42;99993.53;12197337;19;21023;-86
2022/11/18 01:54:08;;;;;;;15.75;12.00;;;6.00;57.30;;;4.59;61.34;100015.00;12194315;19;21258;-86
2022/11/18 01:58:27;;;;;;;13.45;10.75;;;5.90;57.20;;;4.58;61.51;100009.88;12198869;19;20038;-85
2022/11/18 02:02:32;;;;;;;16.58;12.02;;;6.00;57.20;;;4.53;61.25;100009.22;12192778;19;20015;-86
2022/11/18 02:06:35;;;;;;;21.23;16.08;;;5.90;57.10;;;4.50;61.16;100009.34;12190446;19;20919;-85
2022/11/18 02:10:37;;;;;;;16.75;12.93;;;5.90;56.70;;;4.49;61.35;100013.69;12193001;19;20572;-87
2022/11/18 02:14:44;;;;;;;21.38;16.05;;;5.90;57.00;;;4.40;61.46;99994.22;12184289;19;20014;-86
2022/11/18 02:18:55;;;;;;;25.33;17.80;;;6.00;56.80;;;4.33;61.16;99982.47;12197207;19;20026;-85
2022/11/18 02:23:41;;;;;;;23.67;16.20;;;5.90;56.50;;;4.38;61.00;100015.88;12193246;19;20059;-86
2022/11/18 02:27:45;;;;;;;21.60;13.65;;;5.80;56.60;;;4.36;61.30;100015.94;12194006;19;20012;-85
2022/11/18 02:32:17;;;;;;;21.98;14.43;;;5.80;57.20;;;4.32;61.09;100021.28;12196906;19;21017;-86
2022/11/18 02:36:51;;;;;;;16.50;11.85;;;5.70;56.80;;;4.29;61.34;100017.06;12200191;19;20007;-86
2022/11/18 02:41:00;;;;;;;17.60;14.60;;;5.70;56.90;;;4.31;61.36;100025.59;12192748;19;20015;-86
2022/11/18 02:45:09;;;;;;;20.83;13.20;;;5.70;56.60;;;4.25;61.35;100015.53;12193991;19;20026;-86
2022/11/18 02:49:44;;;;;;;18.15;13.65;;;5.70;56.70;;;4.26;61.17;100022.38;12195526;19;21102;-85
2022/11/18 02:53:48;;;;;;;15.93;11.35;;;5.60;56.60;;;4.09;61.16;99996.38;12190265;19;20021;-85
2022/11/18 02:57:51;;;;;;;20.35;14.32;;;5.70;56.80;;;4.22;61.14;100020.81;12191697;19;20078;-86
2022/11/18 03:01:53;;;;;;;17.70;12.23;;;5.70;56.50;;;4.24;61.09;100024.19;12192338;19;20022;-86
2022/11/18 03:06:34;;;;;;;15.82;11.25;;;5.70;56.60;;;4.12;61.04;100006.59;12189322;19;20649;-86
2022/11/18 03:11:03;;;;;;;18.45;12.15;;;5.60;56.70;;;4.19;61.02;100018.38;12194509;19;20023;-86
2022/11/18 03:15:40;;;;;;;20.13;14.73;;;5.60;56.70;;;4.13;61.05;100003.97;12195983;19;20022;-85
2022/11/18 03:20:09;;;;;;;16.80;12.60;;;5.60;56.50;;;4.01;61.19;99990.69;12202410;19;20728;-85
2022/11/18 03:24:28;;;;;;;14.43;11.75;;;5.60;56.60;;;4.05;61.01;100011.19;12200264;19;20011;-85
2022/11/18 03:29:05;;;;;;;19.83;14.05;;;5.50;56.70;;;4.11;61.03;100039.34;12203861;19;20014;-85
2022/11/18 03:33:17;;;;;;;14.82;11.43;;;5.50;56.80;;;4.03;61.16;100025.88;12203330;19;20404;-85
2022/11/18 03:37:21;;;;;;;18.48;12.85;;;5.70;56.80;;;4.01;60.94;100032.84;12204547;19;21018;-86
2022/11/18 03:41:26;;;;;;;19.30;13.70;;;5.50;56.70;;;3.74;60.95;99994.28;12202875;19;20015;-86
2022/11/18 03:45:46;;;;;;;19.73;15.05;;;5.50;56.60;;;3.98;61.01;100038.97;12197246;19;20299;-86
2022/11/18 03:49:56;;;;;;;19.08;13.30;;;5.40;56.50;;;3.90;61.13;100045.34;12200212;19;20465;-85
2022/11/18 03:54:13;;;;;;;18.00;14.13;;;5.40;56.60;;;3.95;61.15;100057.19;12198584;19;20445;-86
2022/11/18 03:58:37;;;;;;;25.27;17.75;;;5.40;56.70;;;3.93;61.11;100066.72;12201774;19;20019;-85
2022/11/18 04:02:39;;;;;;;24.52;16.20;;;5.40;56.60;;;3.90;61.00;100073.75;12200341;19;20505;-85
2022/11/18 04:07:32;;;;;;;19.13;13.90;;;5.30;56.70;;;3.83;61.13;100072.28;12202721;19;20015;-85
2022/11/18 04:16:01;;;;;;;16.55;13.05;;;5.30;56.90;;;3.56;61.26;100033.69;12196748;19;20019;-85
2022/11/18 04:20:03;;;;;;;19.42;14.75;;;5.20;56.90;;;3.69;61.14;100053.00;12203619;19;20394;-85
2022/11/18 04:24:06;;;;;;;22.27;16.33;;;5.20;56.90;;;3.77;61.09;100074.22;12202833;19;20019;-85
2022/11/18 04:28:07;;;;;;;16.60;12.38;;;5.20;56.90;;;3.76;61.14;100088.03;12198118;19;20831;-85
2022/11/18 04:32:09;;;;;;;18.85;13.52;;;5.20;57.00;;;3.72;61.00;100077.88;12198159;19;20541;-85
2022/11/18 04:36:10;;;;;;;19.42;13.23;;;5.10;57.00;;;3.69;61.07;100076.22;12201618;19;20275;-85
2022/11/18 04:40:12;;;;;;;19.55;14.07;;;5.10;56.90;;;3.71;61.10;100083.94;12201176;19;20022;-85
2022/11/18 04:44:14;;;;;;;19.27;13.30;;;5.30;57.10;;;3.62;61.04;100082.56;12198941;19;20333;-85
2022/11/18 04:48:16;;;;;;;22.52;14.45;;;5.10;57.10;;;3.65;61.06;100089.34;12198268;19;20014;-86
2022/11/18 04:52:18;;;;;;;21.67;15.48;;;5.40;57.20;;;3.66;60.98;100104.75;12197237;19;20866;-85
2022/11/18 04:56:20;;;;;;;19.55;13.57;;;5.10;57.10;;;3.61;61.15;100100.66;12198693;19;20029;-85
2022/11/18 05:00:22;;;;;;;22.52;14.82;;;5.00;57.10;;;3.49;60.98;100083.88;12190263;19;20039;-85
2022/11/18 05:04:26;;;;;;;21.40;15.20;;;5.00;57.10;;;3.51;61.06;100106.16;12188382;19;20025;-85
2022/11/18 05:08:28;;;;;;;26.58;16.33;;;4.90;57.10;;;3.51;61.02;100113.91;12191536;19;20386;-85
2022/11/18 05:12:47;;;;;;;20.30;12.80;;;5.10;57.20;;;3.46;61.21;100114.97;12196308;19;20022;-85
2022/11/18 05:16:49;;;;;;;22.55;14.73;;;4.90;57.20;;;3.30;61.03;100086.28;12196685;19;20026;-86
2022/11/18 05:20:51;;;;;;;21.30;14.55;;;4.80;57.20;;;3.42;61.19;100111.66;12183883;19;20014;-83
2022/11/18 05:24:53;;;;;;;18.08;12.88;;;4.80;57.20;;;3.39;61.27;100098.84;12189161;19;20426;-85
2022/11/18 05:28:56;;;;;;;21.40;14.88;;;4.80;57.20;;;3.47;61.21;100109.75;12196957;19;20031;-85
2022/11/18 05:32:57;;;;;;;26.02;17.70;;;5.10;57.40;;;3.36;61.27;100101.56;12196792;19;20029;-85
2022/11/18 05:36:59;;;;;;;26.77;16.98;;;4.80;57.30;;;3.40;61.15;100110.00;12184803;19;20026;-84
2022/11/18 05:41:01;;;;;;;30.88;18.98;;;5.10;57.30;;;3.33;61.13;100112.81;12151683;19;20018;-84
2022/11/18 05:45:03;;;;;;;29.67;18.85;;;4.80;57.00;;;3.10;61.41;100072.34;12150922;19;20022;-84
2022/11/18 05:49:06;;;;;;;26.80;16.98;;;4.80;56.90;;;3.45;61.29;100134.75;12155857;19;20040;-84
2022/11/18 05:53:08;;;;;;;29.20;19.80;;;4.80;56.90;;;3.32;61.10;100136.94;12152748;19;21087;-84
2022/11/18 05:57:10;;;;;;;33.10;20.10;;;4.90;56.70;;;3.31;61.15;100149.88;12152019;19;20026;-83
2022/11/18 06:01:18;;;;;;;30.17;18.75;;;5.10;56.60;;;3.23;61.11;100150.16;12149154;19;20042;-84
2022/11/18 06:05:22;;;;;;;30.83;20.35;;;4.90;56.50;;;3.22;61.22;100155.38;12151106;19;20015;-84
2022/11/18 06:09:29;;;;;;;32.20;18.60;;;4.70;56.30;;;3.18;61.23;100162.38;12150448;19;20729;-84
2022/11/18 06:13:39;;;;;;;30.58;18.35;;;4.60;56.20;;;3.12;61.13;100151.41;12154791;19;20026;-84
2022/11/18 06:18:01;;;;;;;26.45;17.10;;;4.60;56.20;;;3.14;61.08;100159.97;12151811;19;20024;-84
2022/11/18 06:22:03;;;;;;;24.70;15.75;;;4.70;56.30;;;3.14;61.14;100172.84;12153638;19;20391;-83
2022/11/18 06:26:08;;;;;;;20.67;13.68;;;4.60;56.70;;;3.04;61.32;100172.31;12146982;19;20431;-85
2022/11/18 06:30:10;;;;;;;27.30;17.05;;;4.60;56.50;;;3.11;60.90;100176.38;12152586;19;20019;-84
2022/11/18 06:34:11;;;;;;;20.98;13.70;;;4.60;56.20;;;3.13;61.11;100196.94;12151693;19;20033;-84
2022/11/18 06:38:13;;;;;;;19.42;11.73;;;4.60;56.40;;;3.18;61.12;100202.81;12151999;19;20018;-84
2022/11/18 06:43:37;;;;;;;19.98;11.75;;;4.60;56.40;;;3.07;61.05;100204.00;12149681;19;20052;-85
2022/11/18 06:46:56;;;;;;;21.05;12.55;;;4.60;56.40;;;3.09;61.00;100212.53;12146835;19;20368;-85
2022/11/18 06:50:57;;;;;;;19.17;13.93;;;4.60;56.30;;;2.96;61.02;100190.59;12161042;19;20014;-85
2022/11/18 06:54:59;;;;;;;22.15;14.18;;;4.50;56.10;;;2.71;60.85;100163.94;12171020;19;20756;-84
2022/11/18 06:59:01;;;;;;;19.58;12.18;;;4.50;56.10;;;2.69;61.07;100181.19;12172213;19;20022;-83
2022/11/18 07:03:02;;;;;;;20.20;14.15;;;4.80;56.30;;;2.98;60.96;100242.16;12171202;19;20078;-83
2022/11/18 07:07:07;;;;;;;20.88;13.68;;;4.50;56.00;;;2.84;60.85;100227.13;12172146;19;20022;-84
2022/11/18 07:11:13;;;;;;;18.20;12.05;;;4.60;56.00;;;2.91;60.83;100243.22;12170156;19;20406;-84
2022/11/18 07:15:14;;;;;;;;;;;4.40;55.90;;;2.78;60.98;100235.03;12169673;19;20018;-84
2022/11/18 07:19:16;;;;;;;22.17;14.38;;;4.40;55.60;;;2.81;61.03;100237.53;12173914;19;19926;-84
2022/11/18 07:23:17;;;;;;;21.95;14.48;;;4.30;55.30;;;2.75;61.09;100238.53;12173140;19;20782;-84
2022/11/18 07:27:19;;;;;;;22.15;14.20;;;4.30;55.40;;;2.80;60.92;100251.28;12172974;19;20018;-84
2022/11/18 07:31:21;;;;;;;22.88;15.10;;;4.30;55.50;;;2.77;60.84;100253.97;12172244;19;20023;-84
2022/11/18 07:35:23;;;;;;;22.50;14.40;;;4.30;55.30;;;2.74;61.04;100256.66;12162820;19;20018;-84
2022/11/18 07:39:24;;;;;;;31.00;17.48;;;4.30;55.20;;;2.84;60.85;100260.63;12164204;19;20041;-84
2022/11/18 07:43:26;;;;;;;24.02;15.38;;;4.50;54.90;;;2.65;60.89;100252.63;12168104;19;20018;-84
2022/11/18 07:47:28;;;;;;;22.08;14.30;;;4.50;55.10;;;2.71;60.77;100257.59;12167134;19;20923;-84
2022/11/18 07:51:33;;;;;;;15.93;11.38;;;4.20;55.00;;;2.74;61.04;100261.81;12165327;19;20023;-83
2022/11/18 07:55:35;;;;;;;24.55;16.30;;;4.30;55.20;;;2.84;60.95;100279.53;12163464;19;20095;-84
2022/11/18 07:59:37;;;;;;;19.80;13.95;;;4.20;54.70;;;2.65;60.62;100258.63;12165010;19;20010;-84
2022/11/18 08:03:39;;;;;;;31.25;18.70;;;4.30;54.90;;;2.77;60.65;100274.59;12146260;19;20965;-84
2022/11/18 08:07:41;;;;;;;28.77;17.27;;;4.50;54.20;;;2.72;60.71;100273.88;12156195;19;20018;-85
2022/11/18 08:11:43;;;;;;;22.98;15.80;;;4.40;54.90;;;2.78;60.83;100286.59;12144520;19;20010;-84
2022/11/18 08:15:45;;;;;;;25.33;16.80;;;4.50;54.70;;;2.76;60.66;100288.38;12138912;19;20015;-84
2022/11/18 08:19:47;;;;;;;26.75;17.08;;;4.30;54.30;;;2.64;60.66;100274.94;12149874;19;20038;-84
2022/11/18 08:23:55;;;;;;;22.05;14.30;;;4.20;54.20;;;2.73;60.66;100302.22;12144152;19;20248;-84
2022/11/18 08:27:56;;;;;;;24.33;15.95;;;4.20;54.40;;;2.75;60.69;100299.56;12148935;19;21188;-84
2022/11/18 08:31:58;;;;;;;24.48;16.13;;;4.40;54.60;;;2.68;60.41;100288.63;12146263;19;20266;-85
2022/11/18 08:36:25;;;;;;;24.08;16.02;;;4.30;54.40;;;2.75;60.53;100300.41;12147915;19;20060;-84
2022/11/18 08:40:27;;;;;;;22.80;15.30;;;4.20;54.50;;;2.70;60.55;100297.16;12150009;19;20018;-84
2022/11/18 08:44:32;;;;;;;25.70;16.05;;;4.30;54.30;;;2.72;60.52;100309.97;12142194;19;20038;-84
2022/11/18 08:48:35;;;;;;;22.50;14.25;;;4.30;53.90;;;2.74;60.36;100323.69;12149713;19;20022;-83
2022/11/18 08:52:37;;;;;;;17.95;12.45;;;4.40;54.00;;;2.72;60.54;100330.59;12146593;19;20019;-85
2022/11/18 08:56:39;;;;;;;18.45;12.80;;;4.20;54.50;;;2.75;60.44;100338.25;12160974;19;20018;-83
2022/11/18 09:00:41;;;;;;;15.30;11.13;;;4.50;54.70;;;2.68;60.59;100335.00;12156645;19;20029;-87
2022/11/18 09:04:45;;;;;;;22.73;14.18;;;4.30;54.70;;;2.35;60.33;100275.81;12144887;19;20033;-87
2022/11/18 09:08:48;;;;;;;22.50;16.25;;;4.40;54.30;;;2.78;60.22;100345.88;12154936;19;20459;-83
2022/11/18 09:12:49;;;;;;;20.60;13.88;;;4.20;53.60;;;2.71;60.39;100345.22;12152830;19;20801;-84
2022/11/18 09:16:51;;;;;;;24.25;16.67;;;4.20;54.00;;;2.70;60.05;100348.72;12149222;19;20011;-83
2022/11/18 09:21:06;;;;;;;22.83;16.13;;;4.20;53.60;;;2.63;60.07;100347.19;12154029;19;20030;-84
2022/11/18 09:25:08;;;;;;;20.53;13.83;;;4.20;53.90;;;2.53;60.14;100351.75;12152545;19;20022;-83
2022/11/18 09:29:10;;;;;;;21.40;13.27;;;4.20;53.80;;;2.70;60.27;100379.66;12155299;19;20021;-84
2022/11/18 09:33:12;;;;;;;18.27;12.50;;;4.30;54.00;;;2.66;60.21;100378.88;12149182;19;20019;-84
2022/11/18 09:37:13;;;;;;;15.88;11.27;;;4.40;54.20;;;2.60;60.09;100384.19;12155330;19;21035;-84
2022/11/18 09:41:41;;;;;;;22.80;13.38;;;4.10;54.20;;;2.66;60.07;100404.63;12155794;19;20042;-84
2022/11/18 09:45:48;;;;;;;17.05;11.30;;;4.20;53.70;;;2.58;60.22;100396.28;12153679;19;20018;-84
2022/11/18 09:49:52;;;;;;;19.58;12.80;;;4.30;54.10;;;2.55;60.39;100396.38;12150406;19;20025;-84
2022/11/18 09:53:54;;;;;;;17.90;10.63;;;4.20;54.10;;;2.25;60.15;100333.63;12146076;19;20680;-83
2022/11/18 09:57:58;;;;;;;15.10;10.38;;;4.10;54.40;;;2.62;60.22;100405.63;12151459;19;20024;-84
2022/11/18 10:02:52;;;;;;;14.80;10.67;;;4.10;54.10;;;2.61;59.98;100403.91;12149342;19;20018;-84
2022/11/18 10:06:53;;;;;;;16.92;9.55;;;4.20;54.40;;;2.63;60.29;100401.31;12152024;19;20645;-83
2022/11/18 10:11:13;;;;;;;12.63;9.07;;;4.20;54.50;;;2.72;60.04;100423.41;12150351;19;20431;-84
2022/11/18 10:15:43;;;;;;;11.55;9.27;;;4.20;54.40;;;2.69;60.05;100416.59;12146295;19;20022;-84
2022/11/18 10:20:23;;;;;;;14.25;9.52;;;4.30;54.20;;;2.70;60.13;100425.19;12151053;19;20094;-84
2022/11/18 10:24:34;;;;;;;14.50;9.05;;;4.20;54.20;;;2.66;60.04;100414.13;12147671;19;20452;-84
2022/11/18 10:28:36;;;;;;;11.25;7.35;;;4.20;54.30;;;2.60;60.19;100404.81;12151692;19;20817;-84
2022/11/18 10:32:58;;;;;;;9.00;6.70;;;4.20;54.60;;;2.77;60.27;100429.28;12145803;19;20011;-84
2022/11/18 10:37:05;;;;;;;11.57;8.27;;;4.20;54.70;;;2.82;60.14;100430.00;12151942;19;20411;-84
2022/11/18 10:41:20;;;;;;;10.73;8.40;;;4.30;54.40;;;2.75;59.92;100415.59;12152002;19;20025;-84
2022/11/18 10:45:21;;;;;;;14.70;9.27;;;4.30;54.40;;;2.82;60.13;100437.75;12150606;19;20274;-85
2022/11/18 10:49:26;;;;;;;12.10;7.57;;;4.30;54.10;;;2.74;60.21;100437.13;12150983;19;20924;-85
2022/11/18 10:53:34;;;;;;;14.30;8.63;;;4.50;54.50;;;2.81;60.10;100446.38;12149887;19;20015;-84
2022/11/18 10:57:42;;;;;;;11.60;8.05;;;4.30;54.00;;;2.78;60.04;100439.56;12157343;19;20524;-84
2022/11/18 11:02:29;;;;;;;11.10;8.38;;;4.30;53.90;;;2.80;60.04;100448.09;12141504;19;20356;-84
2022/11/18 11:06:38;;;;;;;9.05;6.80;;;4.30;53.70;;;2.77;60.03;100458.50;12152339;19;20368;-85
2022/11/18 11:10:40;;;;;;;9.13;6.78;;;4.30;54.20;;;2.84;60.08;100469.50;12155403;19;20026;-83
2022/11/18 11:14:54;;;;;;;12.88;8.32;;;4.30;54.40;;;2.74;60.00;100443.09;12150888;19;20462;-84
2022/11/18 11:19:01;;;;;;;14.13;9.52;;;4.30;53.90;;;2.72;60.10;100438.88;12150388;19;20018;-84
2022/11/18 11:23:10;;;;;;;11.75;7.78;;;4.60;53.90;;;2.74;59.93;100447.44;12146439;19;20093;-84
2022/11/18 11:27:27;;;;;;;16.23;8.48;;;4.30;53.90;;;2.76;59.92;100455.97;12151912;19;21001;-82
2022/11/18 11:31:59;;;;;;;9.98;7.55;;;4.30;53.70;;;2.80;59.93;100467.88;12151224;19;20021;-84
2022/11/18 11:36:19;;;;;;;11.52;8.05;;;4.30;54.20;;;2.82;60.05;100460.94;12150868;19;21012;-85
2022/11/18 11:40:55;;;;;;;15.88;9.15;;;4.30;54.00;;;2.82;59.95;100461.78;12166672;19;20018;-85
2022/11/18 11:45:26;;;;;;;8.85;6.90;;;4.30;53.60;;;2.80;59.99;100454.97;12161200;19;20270;-84
2022/11/18 11:49:48;;;;;;;12.63;8.10;;;4.30;54.20;;;2.76;59.94;100443.91;12164879;19;20019;-85
2022/11/18 11:54:48;;;;;;;11.52;7.70;;;4.30;54.10;;;2.86;59.93;100460.81;12159516;19;20026;-84
2022/11/18 11:59:07;;;;;;;11.25;8.20;;;4.30;53.90;;;2.85;59.76;100463.44;12163950;19;20022;-84
2022/11/18 12:03:44;;;;;;;9.95;6.63;;;4.30;53.60;;;2.75;59.93;100452.53;12158637;19;20026;-85
2022/11/18 12:08:30;;;;;;;10.45;7.38;;;4.40;53.90;;;2.81;59.89;100464.44;12162626;19;20390;-85
2022/11/18 12:12:45;;;;;;;10.77;7.30;;;4.40;53.60;;;2.92;59.66;100483.03;12143829;19;20322;-85
2022/11/18 12:17:33;;;;;;;7.82;5.60;;;4.40;53.60;;;2.93;59.88;100494.19;12156060;19;20021;-85
2022/11/18 12:21:44;;;;;;;10.15;6.72;;;4.50;54.20;;;3.00;59.89;100499.13;12157742;19;20944;-85
2022/11/18 12:25:48;;;;;;;10.05;7.15;;;4.40;53.50;;;3.01;59.62;100508.53;12160319;19;20014;-84
2022/11/18 12:29:58;;;;;;;7.72;5.82;;;4.50;53.00;;;2.83;59.83;100485.84;12169832;19;20028;-85
2022/11/18 12:34:24;;;;;;;7.35;5.10;;;4.50;52.90;;;2.70;59.71;100464.72;12163559;19;20052;-84
2022/11/18 12:38:30;;;;;;;8.85;6.75;;;4.50;53.50;;;2.98;59.87;100516.38;12162607;19;20109;-85
2022/11/18 12:47:10;;;;;;;9.45;6.45;;;4.50;53.20;;;3.03;59.71;100516.25;12166089;19;20070;-84
2022/11/18 12:51:15;;;;;;;6.80;5.75;;;4.70;52.60;;;3.03;59.70;100524.84;12162633;19;20014;-84
2022/11/18 12:55:31;;;;;;;5.60;4.82;;;4.50;52.10;;;2.95;59.35;100521.63;12156487;19;20022;-84
2022/11/18 12:59:36;;;;;;;4.55;4.10;;;4.70;52.20;;;2.99;59.47;100528.38;12157482;19;20367;-86
2022/11/18 13:03:38;;;;;;;4.53;3.85;;;4.50;52.20;;;2.82;59.52;100489.31;12154054;19;21054;-84
2022/11/18 13:08:12;;;;;;;5.38;4.10;;;4.70;52.50;;;2.96;59.33;100533.63;12159762;19;20041;-84
2022/11/18 13:12:17;;;;;;;5.53;4.60;;;4.50;52.10;;;2.92;59.52;100532.03;12148995;19;20797;-84
2022/11/18 13:20:56;;;;;;;4.68;4.20;;;4.70;51.70;;;2.87;59.06;100547.59;12149913;19;20030;-84
2022/11/18 13:24:58;;;;;;;4.32;3.83;;;4.80;51.20;;;2.88;59.50;100546.72;12149903;19;20018;-84
2022/11/18 13:29:27;;;;;;;5.30;4.57;;;4.70;51.80;;;2.85;59.26;100564.84;12155910;19;20110;-84
2022/11/18 13:33:36;;;;;;;6.90;4.15;;;4.40;51.00;;;2.80;59.02;100551.22;12153242;19;20509;-84
2022/11/18 13:37:56;;;;;;;5.38;4.13;;;4.40;51.70;;;2.81;59.12;100562.41;12154145;19;20043;-84
2022/11/18 13:42:03;;;;;;;5.25;4.15;;;4.30;52.00;;;2.90;59.24;100567.31;12154625;19;20793;-84
2022/11/18 13:46:20;;;;;;;4.20;3.58;;;4.50;51.60;;;2.79;59.11;100535.81;12154764;19;20014;-84
2022/11/18 13:50:30;;;;;;;4.43;3.65;;;4.40;52.00;;;2.94;59.07;100562.91;12150983;19;20015;-84
2022/11/18 13:54:31;;;;;;;5.68;4.00;;;4.40;51.90;;;2.89;59.09;100560.47;12153684;19;20014;-85
2022/11/18 13:58:47;;;;;;;4.22;3.80;;;4.60;51.90;;;2.87;59.06;100560.50;12153957;19;20022;-84
2022/11/18 14:02:59;;;;;;;6.00;3.92;;;4.60;51.60;;;2.47;58.90;100490.25;12157519;19;20729;-84
2022/11/18 14:07:34;;;;;;;3.50;3.20;;;4.40;52.30;;;2.85;58.90;100553.69;12158554;19;20025;-85
2022/11/18 14:11:55;;;;;;;3.35;3.00;;;4.50;52.50;;;2.77;59.13;100538.41;12153565;19;20363;-85
2022/11/18 14:16:01;;;;;;;3.33;3.03;;;4.40;52.10;;;2.77;58.92;100543.56;12155838;19;20288;-85
2022/11/18 14:20:15;;;;;;;3.10;2.80;;;4.50;52.30;;;2.73;58.87;100535.94;12155948;19;20046;-85
2022/11/18 14:24:26;;;;;;;2.92;2.72;;;4.50;52.20;;;2.98;58.78;100585.16;12153530;19;20421;-84
2022/11/18 14:28:36;;;;;;;2.92;2.70;;;4.50;51.50;;;2.84;58.97;100578.63;12160104;19;20021;-85
2022/11/18 14:32:38;;;;;;;2.67;2.47;;;4.50;52.10;;;2.95;59.07;100599.00;12153816;19;20060;-86
2022/11/18 14:36:40;;;;;;;3.50;2.92;;;4.80;52.40;;;2.71;59.05;100559.22;12158025;19;20017;-85
2022/11/18 14:40:42;;;;;;;2.80;2.60;;;4.40;51.80;;;2.88;59.08;100600.03;12157243;19;20022;-85
2022/11/18 14:44:43;;;;;;;2.88;2.42;;;4.50;51.80;;;2.60;58.88;100569.78;12146070;19;20412;-84
2022/11/18 14:48:45;;;;;;;2.88;2.50;;;4.40;51.80;;;2.80;58.81;100610.53;12147876;19;20867;-84
2022/11/18 14:52:47;;;;;;;1.98;1.88;;;4.40;51.90;;;2.67;58.91;100601.41;12147320;19;20026;-84
2022/11/18 14:56:50;;;;;;;3.33;2.15;;;4.30;52.10;;;2.77;58.80;100617.50;12159484;19;20041;-83
2022/11/18 15:00:51;;;;;;;2.03;1.83;;;4.30;52.30;;;2.75;58.90;100625.25;12156835;19;20014;-83
2022/11/18 15:04:53;;;;;;;2.00;1.90;;;4.30;52.50;;;2.87;58.71;100644.75;12154596;19;20459;-84
2022/11/18 15:08:55;;;;;;;2.30;2.10;;;4.50;52.60;;;2.57;58.86;100593.06;12157137;19;20022;-85
2022/11/18 15:12:57;;;;;;;2.55;2.35;;;4.40;52.50;;;2.83;58.90;100638.81;12156993;19;20772;-84
2022/11/18 15:16:59;;;;;;;2.25;2.05;;;4.30;52.50;;;2.59;58.79;100604.19;12167662;19;20750;-84
2022/11/18 15:21:00;;;;;;;2.10;1.92;;;4.30;52.60;;;2.62;58.78;100606.69;12168722;19;20433;-84
2022/11/18 15:25:03;;;;;;;2.08;1.98;;;4.30;53.20;;;2.83;58.70;100648.28;12165642;19;20018;-83
2022/11/18 15:29:06;;;;;;;2.30;2.10;;;4.30;53.00;;;2.83;58.67;100653.44;12171453;19;20598;-83
2022/11/18 15:33:08;;;;;;;5.28;4.55;;;4.30;52.70;;;2.87;58.68;100661.06;12162535;19;20365;-83
2022/11/18 15:37:12;;;;;;;4.47;3.10;;;4.30;52.50;;;2.81;58.73;100655.22;12169522;19;20583;-83
2022/11/18 15:41:26;;;;;;;2.90;2.60;;;4.30;52.80;;;2.65;58.50;100637.53;12162341;19;20370;-83
2022/11/18 15:45:27;;;;;;;2.38;2.17;;;4.20;52.70;;;2.66;58.74;100651.28;12166816;19;20034;-83
2022/11/18 15:49:29;;;;;;;2.58;2.35;;;4.20;52.70;;;2.65;58.53;100662.47;12175423;19;20583;-83
2022/11/18 15:53:30;;;;;;;2.25;2.00;;;4.20;52.80;;;2.71;58.90;100672.63;12170645;19;20015;-83
2022/11/18 15:57:32;;;;;;;2.40;2.20;;;4.20;53.00;;;2.76;58.76;100686.28;12152802;19;20375;-83
2022/11/18 16:01:37;;;;;;;2.08;1.90;;;4.20;53.10;;;2.78;58.59;100686.22;12164388;19;20191;-83
2022/11/18 16:05:39;;;;;;;2.58;2.38;;;4.20;53.10;;;2.47;58.69;100637.13;12170554;19;20904;-83
2022/11/18 16:14:20;;;;;;;2.50;2.15;;;4.20;53.20;;;2.61;58.62;100672.00;12160960;19;20022;-81
2022/11/18 16:18:21;;;;;;;2.25;2.08;;;4.20;53.20;;;2.57;58.44;100675.53;12167104;19;20014;-83
2022/11/18 16:22:23;;;;;;;2.75;2.28;;;4.20;53.20;;;2.68;58.76;100700.25;12162148;19;20015;-82
2022/11/18 16:26:26;;;;;;;4.75;3.40;;;4.20;53.20;;;2.52;58.68;100679.97;12166132;19;21013;-82
2022/11/18 16:34:47;;;;;;;3.42;3.13;;;4.10;53.20;;;2.54;58.85;100698.81;12163033;19;20419;-83
2022/11/18 16:38:49;;;;;;;5.00;4.18;;;4.10;53.30;;;2.59;58.84;100720.19;12166937;19;20019;-83
2022/11/18 16:42:51;;;;;;;5.47;4.00;;;4.20;53.20;;;2.50;58.60;100709.22;12164844;19;20108;-83
2022/11/18 16:46:56;;;;;;;3.47;3.13;;;4.00;53.20;;;2.41;58.67;100697.41;12163215;19;20007;-83
2022/11/18 16:51:19;;;;;;;;;;;4.00;53.20;;;2.40;58.70;100724.03;12162306;19;20115;-82
2022/11/18 16:55:21;;;;;;;3.72;2.30;;;3.90;53.30;;;2.45;58.86;100740.25;12162241;19;19946;-82
2022/11/18 16:59:26;;;;;;;5.68;2.90;;;4.20;53.40;;;2.30;58.78;100719.97;12169093;19;20033;-84
2022/11/18 17:03:27;;;;;;;2.97;2.47;;;3.90;53.30;;;2.37;58.91;100742.13;12162220;19;20022;-83
2022/11/18 17:07:29;;;;;;;4.50;3.28;;;3.90;53.40;;;2.25;58.74;100727.78;12163536;19;20014;-83
2022/11/18 17:11:30;;;;;;;4.55;3.72;;;4.20;53.50;;;1.92;58.83;100688.13;12159210;19;20625;-84
2022/11/18 17:15:34;;;;;;;6.32;4.18;;;3.80;53.30;;;2.34;58.54;100747.34;12167266;19;20007;-83
2022/11/18 17:19:36;;;;;;;5.15;4.13;;;4.00;53.40;;;2.32;58.74;100756.84;12165215;19;20033;-83
2022/11/18 17:23:39;;;;;;;6.63;4.28;;;3.80;53.30;;;2.21;58.58;100747.63;12166699;19;20017;-83
2022/11/18 17:27:41;;;;;;;3.67;3.30;;;4.00;53.40;;;2.21;58.88;100750.19;12166772;19;20018;-83
2022/11/18 17:31:42;;;;;;;6.68;4.72;;;3.90;53.40;;;2.24;58.59;100761.31;12162175;19;20019;-83
2022/11/18 17:35:44;;;;;;;4.43;4.03;;;3.70;53.40;;;2.07;58.60;100754.75;12155893;19;20018;-82
2022/11/18 17:39:46;;;;;;;7.03;4.68;;;3.90;53.50;;;2.19;58.76;100775.13;12167935;19;20018;-83
2022/11/18 17:43:48;;;;;;;5.28;4.13;;;3.60;53.40;;;2.16;58.78;100775.19;12160654;19;20603;-83
2022/11/18 17:47:50;;;;;;;7.63;4.82;;;3.90;53.60;;;2.14;58.68;100787.25;12162858;19;20024;-83